createdAt,value
2022-09-20T00:00:06.467Z,63.10
2022-09-20T00:00:38.809Z,63.60
2022-09-20T00:01:13.162Z,63.50
2022-09-20T00:01:45.191Z,63.60
2022-09-20T00:02:17.035Z,63.70
2022-09-20T00:02:48.855Z,64.00
2022-09-20T00:03:20.574Z,63.60
2022-09-20T00:03:55.653Z,63.80
2022-09-20T00:04:27.417Z,63.80
2022-09-20T00:04:59.191Z,63.60
2022-09-20T00:05:37.329Z,63.70
2022-09-20T00:06:12.915Z,63.30
2022-09-20T00:06:44.633Z,63.50
2022-09-20T00:07:16.449Z,63.60
2022-09-20T00:07:48.313Z,63.40
2022-09-20T00:08:20.029Z,63.60
2022-09-20T00:08:52.901Z,63.60
2022-09-20T00:09:24.638Z,63.60
2022-09-20T00:09:57.599Z,64.10
2022-09-20T00:10:31.052Z,63.50
2022-09-20T00:11:10.139Z,63.00
2022-09-20T00:11:41.866Z,63.60
2022-09-20T00:12:13.699Z,63.50
2022-09-20T00:12:45.442Z,63.70
2022-09-20T00:13:17.157Z,63.10
2022-09-20T00:13:50.783Z,64.00
2022-09-20T00:14:22.870Z,64.40
2022-09-20T00:14:54.574Z,63.80
2022-09-20T00:15:26.338Z,63.50
2022-09-20T00:15:58.203Z,63.00
2022-09-20T00:16:34.340Z,63.70
2022-09-20T00:17:06.391Z,66.20
2022-09-20T00:17:38.230Z,63.00
2022-09-20T00:18:11.311Z,64.20
2022-09-20T00:18:43.278Z,63.50
2022-09-20T00:19:21.748Z,62.90
2022-09-20T00:19:53.502Z,63.00
2022-09-20T00:20:26.101Z,63.50
2022-09-20T00:20:57.932Z,64.30
2022-09-20T00:21:31.365Z,64.30
2022-09-20T00:22:03.094Z,64.20
2022-09-20T00:22:34.860Z,63.60
2022-09-20T00:23:06.594Z,63.00
2022-09-20T00:23:38.299Z,62.40
2022-09-20T00:24:11.534Z,63.80
2022-09-20T00:24:48.192Z,62.80
2022-09-20T00:25:20.785Z,63.80
2022-09-20T00:26:03.313Z,64.20
2022-09-20T00:26:36.397Z,63.40
2022-09-20T00:27:08.216Z,63.60
2022-09-20T00:27:39.965Z,63.00
2022-09-20T00:28:12.143Z,63.50
2022-09-20T00:28:44.325Z,63.50
2022-09-20T00:29:16.760Z,63.40
2022-09-20T00:29:48.602Z,63.40
2022-09-20T00:30:21.014Z,64.20
2022-09-20T00:30:54.597Z,62.80
2022-09-20T00:31:26.634Z,63.40
2022-09-20T00:31:58.506Z,63.40
2022-09-20T00:32:31.382Z,63.50
2022-09-20T00:33:03.433Z,63.40
2022-09-20T00:33:54.089Z,63.40
2022-09-20T00:34:44.867Z,63.30
2022-09-20T00:35:16.745Z,64.20
2022-09-20T00:35:49.064Z,62.80
2022-09-20T00:36:21.111Z,63.20
2022-09-20T00:36:55.045Z,62.80
2022-09-20T00:37:26.884Z,63.80
2022-09-20T00:37:58.689Z,63.30
2022-09-20T00:38:30.474Z,63.30
2022-09-20T00:39:03.451Z,63.70
2022-09-20T00:39:35.242Z,63.30
2022-09-20T00:40:12.390Z,63.50
2022-09-20T00:40:45.280Z,63.30
2022-09-20T00:41:17.126Z,62.80
2022-09-20T00:41:48.904Z,62.70
2022-09-20T00:42:28.339Z,62.60
2022-09-20T00:43:00.227Z,63.10
2022-09-20T00:43:50.533Z,63.10
2022-09-20T00:45:01.593Z,62.50
2022-09-20T00:45:34.191Z,62.00
2022-09-20T00:46:49.255Z,61.70
2022-09-20T00:47:36.367Z,61.70
2022-09-20T00:48:30.717Z,61.90
2022-09-20T00:49:18.780Z,62.00
2022-09-20T05:46:14.574Z,64.50
2022-09-20T05:48:05.218Z,64.50
2022-09-20T05:49:04.787Z,64.70
2022-09-20T05:50:39.480Z,64.80
2022-09-20T05:51:46.994Z,64.80
2022-09-20T05:52:34.128Z,65.30
2022-09-20T05:53:24.284Z,66.20
2022-09-20T05:54:35.273Z,65.60
2022-09-20T05:55:24.559Z,65.50
2022-09-20T05:56:17.847Z,65.70
2022-09-20T05:57:08.351Z,66.00
2022-09-20T05:57:56.469Z,66.00
2022-09-20T05:58:55.606Z,66.40
2022-09-20T05:59:45.288Z,66.60
2022-09-20T06:00:21.445Z,66.50
2022-09-20T06:01:27.310Z,66.70
2022-09-20T06:02:17.468Z,66.60
2022-09-20T06:03:17.386Z,66.70
2022-09-20T06:04:05.686Z,66.70
2022-09-20T06:04:46.844Z,66.80
2022-09-20T06:05:38.146Z,66.90
2022-09-20T06:06:14.499Z,66.80
2022-09-20T06:06:57.638Z,66.90
2022-09-20T06:07:32.468Z,66.90
2022-09-20T06:08:16.816Z,66.90
2022-09-20T06:08:49.125Z,66.40
2022-09-20T06:09:29.830Z,66.30
2022-09-20T06:10:31.043Z,67.10
2022-09-20T06:11:25.621Z,66.40
2022-09-20T06:12:24.986Z,67.00
2022-09-20T06:13:24.301Z,67.20
2022-09-20T06:14:27.712Z,66.70
2022-09-20T06:15:19.540Z,67.40
2022-09-20T06:15:58.483Z,66.70
2022-09-20T06:17:00.981Z,67.20
2022-09-20T06:17:53.646Z,67.30
2022-09-20T06:18:28.873Z,67.30
2022-09-20T06:19:22.001Z,67.50
2022-09-20T06:20:25.736Z,67.50
2022-09-20T06:21:42.677Z,67.50
2022-09-20T06:22:24.608Z,67.40
2022-09-20T06:23:01.018Z,67.50
2022-09-20T06:23:35.509Z,67.20
2022-09-20T06:24:32.522Z,67.30
2022-09-20T06:25:07.213Z,67.10
2022-09-20T06:25:56.022Z,67.10
2022-09-20T06:26:33.880Z,67.70
2022-09-20T06:27:21.966Z,68.40
2022-09-20T06:28:08.120Z,67.70
2022-09-20T06:28:47.225Z,67.80
2022-09-20T06:29:29.293Z,67.30
2022-09-20T06:30:05.883Z,69.00
2022-09-20T06:30:44.957Z,67.30
2022-09-20T06:31:18.209Z,67.40
2022-09-20T06:31:49.972Z,67.50
2022-09-20T06:32:22.690Z,68.90
2022-09-20T06:32:55.675Z,67.50
2022-09-20T06:33:29.663Z,68.20
2022-09-20T06:34:39.635Z,67.60
2022-09-20T06:35:11.842Z,67.60
2022-09-20T06:35:58.857Z,67.60
2022-09-20T06:36:54.001Z,68.00
2022-09-20T06:38:08.914Z,67.70
2022-09-20T06:39:20.860Z,68.20
2022-09-20T06:40:39.756Z,67.80
2022-09-20T06:41:28.276Z,67.80
2022-09-20T06:42:01.088Z,68.40
2022-09-20T06:42:34.026Z,67.90
2022-09-20T06:43:06.350Z,68.90
2022-09-20T06:43:40.380Z,68.90
2022-09-20T06:44:12.118Z,69.10
2022-09-20T06:44:43.885Z,68.20
2022-09-20T06:45:15.608Z,68.10
2022-09-20T06:45:48.488Z,68.00
2022-09-20T06:46:20.780Z,68.00
2022-09-20T06:47:27.313Z,68.20
2022-09-20T06:48:02.083Z,68.60
2022-09-20T06:48:34.516Z,68.10
2022-09-20T06:49:10.112Z,69.40
2022-09-20T06:49:42.762Z,68.20
2022-09-20T06:50:16.308Z,68.90
2022-09-20T06:50:48.143Z,69.00
2022-09-20T06:51:20.639Z,68.80
2022-09-20T06:51:52.390Z,68.40
2022-09-20T06:52:24.352Z,68.40
2022-09-20T06:52:56.615Z,69.90
2022-09-20T06:53:31.021Z,68.50
2022-09-20T06:54:03.890Z,68.50
2022-09-20T06:54:37.793Z,68.90
2022-09-20T06:55:26.075Z,68.30
2022-09-20T06:56:01.654Z,68.50
2022-09-20T06:56:36.750Z,68.50
2022-09-20T06:57:10.533Z,68.40
2022-09-20T06:57:42.328Z,68.30
2022-09-20T06:58:14.300Z,68.30
2022-09-20T06:58:46.943Z,68.90
2022-09-20T06:59:18.806Z,68.80
2022-09-20T06:59:50.557Z,68.30
2022-09-20T07:00:22.646Z,68.30
2022-09-20T07:02:02.591Z,68.40
2022-09-20T07:02:34.374Z,68.50
2022-09-20T07:03:07.022Z,68.60
2022-09-20T07:03:38.830Z,68.60
2022-09-20T07:04:10.650Z,68.50
2022-09-20T07:04:43.574Z,68.40
2022-09-20T07:05:16.853Z,68.50
2022-09-20T07:05:48.621Z,71.20
2022-09-20T07:06:20.385Z,68.60
2022-09-20T07:06:53.959Z,68.40
2022-09-20T07:07:26.117Z,68.50
2022-09-20T07:08:30.739Z,68.50
2022-09-20T07:09:35.733Z,68.50
2022-09-20T07:10:07.925Z,68.60
2022-09-20T07:10:39.684Z,68.60
2022-09-20T07:11:15.725Z,68.60
2022-09-20T07:11:47.640Z,68.40
2022-09-20T07:12:19.394Z,68.80
2022-09-20T07:12:51.134Z,68.70
2022-09-20T07:13:24.010Z,70.20
2022-09-20T07:13:58.200Z,69.00
2022-09-20T07:14:30.029Z,69.00
2022-09-20T07:15:02.015Z,68.50
2022-09-20T07:15:34.792Z,68.50
2022-09-20T07:16:08.623Z,68.60
2022-09-20T07:16:40.425Z,69.10
2022-09-20T07:17:13.213Z,68.60
2022-09-20T07:17:45.534Z,69.00
2022-09-20T07:18:17.346Z,68.50
2022-09-20T07:18:49.428Z,69.40
2022-09-20T07:19:22.727Z,68.60
2022-09-20T07:19:57.096Z,68.60
2022-09-20T07:20:28.869Z,68.70
2022-09-20T07:21:01.391Z,68.60
2022-09-20T07:21:33.174Z,68.50
2022-09-20T07:22:05.057Z,68.50
2022-09-20T07:22:36.939Z,68.50
2022-09-20T07:23:08.714Z,68.40
2022-09-20T07:23:40.593Z,69.50
2022-09-20T07:24:15.010Z,70.00
2022-09-20T07:24:48.178Z,70.10
2022-09-20T07:25:20.697Z,68.70
2022-09-20T07:25:53.626Z,69.00
2022-09-20T07:26:28.454Z,68.70
2022-09-20T07:27:02.775Z,68.70
2022-09-20T07:27:34.577Z,68.90
2022-09-20T07:28:06.379Z,70.10
2022-09-20T07:28:38.180Z,68.50
2022-09-20T07:29:10.058Z,68.40
2022-09-20T07:29:41.987Z,68.60
2022-09-20T07:30:14.857Z,68.60
2022-09-20T07:30:47.783Z,69.60
2022-09-20T07:31:21.686Z,69.80
2022-09-20T07:31:53.854Z,68.60
2022-09-20T07:32:27.050Z,68.50
2022-09-20T07:33:00.177Z,69.60
2022-09-20T07:33:31.871Z,70.10
2022-09-20T07:34:05.640Z,68.90
2022-09-20T07:34:37.510Z,70.40
2022-09-20T07:35:10.531Z,68.00
2022-09-20T07:35:42.334Z,68.80
2022-09-20T07:36:15.273Z,69.30
2022-09-20T07:36:48.340Z,68.70
2022-09-20T07:37:20.314Z,69.50
2022-09-20T07:37:59.496Z,69.60
2022-09-20T07:38:31.241Z,69.00
2022-09-20T07:39:03.109Z,69.10
2022-09-20T07:39:34.872Z,69.60
2022-09-20T07:40:07.786Z,68.90
2022-09-20T07:40:39.630Z,69.60
2022-09-20T07:41:11.446Z,68.70
2022-09-20T07:41:48.391Z,68.90
2022-09-20T07:42:20.367Z,69.00
2022-09-20T07:42:56.121Z,70.80
2022-09-20T07:43:29.697Z,69.20
2022-09-20T07:44:20.842Z,70.40
2022-09-20T07:44:53.103Z,70.40
2022-09-20T07:45:25.205Z,69.90
2022-09-20T07:45:59.325Z,69.20
2022-09-20T07:46:36.015Z,70.10
2022-09-20T07:47:10.163Z,70.40
2022-09-20T07:47:44.815Z,69.30
2022-09-20T07:48:16.576Z,69.00
2022-09-20T07:48:48.433Z,69.00
2022-09-20T07:49:21.858Z,69.20
2022-09-20T07:49:53.757Z,71.00
2022-09-20T07:50:25.886Z,69.10
2022-09-20T07:51:04.683Z,69.20
2022-09-20T07:51:38.557Z,69.10
2022-09-20T07:52:11.195Z,69.30
2022-09-20T07:52:43.119Z,69.40
2022-09-20T07:53:14.850Z,69.60
2022-09-20T07:53:46.554Z,70.40
2022-09-20T07:54:18.869Z,71.00
2022-09-20T07:54:50.622Z,69.70
2022-09-20T07:55:22.378Z,69.40
2022-09-20T07:56:01.264Z,69.50
2022-09-20T07:56:33.045Z,72.80
2022-09-20T07:57:05.670Z,69.50
2022-09-20T07:57:38.520Z,69.60
2022-09-20T07:58:47.408Z,69.50
2022-09-20T07:59:24.206Z,69.50
2022-09-20T07:59:55.959Z,69.50
2022-09-20T08:00:27.707Z,69.80
2022-09-20T08:01:08.113Z,69.90
2022-09-20T08:01:40.775Z,70.30
2022-09-20T08:02:16.820Z,69.90
2022-09-20T08:02:48.743Z,69.90
2022-09-20T08:03:20.772Z,69.70
2022-09-20T08:03:52.941Z,69.60
2022-09-20T08:04:24.698Z,69.60
2022-09-20T08:04:56.403Z,69.60
2022-09-20T08:05:28.198Z,69.50
2022-09-20T08:06:06.713Z,69.50
2022-09-20T08:06:41.613Z,69.50
2022-09-20T08:07:13.440Z,69.20
2022-09-20T08:08:18.661Z,69.40
2022-09-20T08:08:51.609Z,69.30
2022-09-20T08:09:23.376Z,69.50
2022-09-20T08:10:27.558Z,69.60
2022-09-20T08:11:06.750Z,69.60
2022-09-20T08:14:08.567Z,69.70
2022-09-20T08:14:41.205Z,69.70
2022-09-20T08:16:17.799Z,69.60
2022-09-20T08:16:50.366Z,69.60
2022-09-20T08:17:22.193Z,69.60
2022-09-20T08:18:28.306Z,69.30
2022-09-20T08:19:02.664Z,69.30
2022-09-20T08:19:34.945Z,69.30
2022-09-20T08:20:39.506Z,69.40
2022-09-20T08:21:11.662Z,69.40
2022-09-20T08:21:44.345Z,69.30
2022-09-20T08:22:16.071Z,69.40
2022-09-20T08:23:06.261Z,69.00
2022-09-20T08:24:14.463Z,69.30
2022-09-20T08:24:46.990Z,70.10
2022-09-20T08:25:18.735Z,69.60
2022-09-20T08:25:50.501Z,69.40
2022-09-20T08:26:26.896Z,69.50
2022-09-20T08:26:59.140Z,69.80
2022-09-20T08:28:36.075Z,70.00
2022-09-20T08:29:40.511Z,69.60
2022-09-20T08:30:12.332Z,69.60
2022-09-20T08:30:44.074Z,69.70
2022-09-20T08:31:21.176Z,69.80
2022-09-20T08:31:55.683Z,70.10
2022-09-20T08:32:59.914Z,70.00
2022-09-20T08:33:32.837Z,70.60
2022-09-20T08:34:07.045Z,70.70
2022-09-20T08:34:40.631Z,70.70
2022-09-20T08:35:14.512Z,70.10
2022-09-20T08:35:49.469Z,70.20
2022-09-20T08:36:24.497Z,70.20
2022-09-20T08:36:56.590Z,69.90
2022-09-20T08:37:28.410Z,70.00
2022-09-20T08:39:57.196Z,70.30
2022-09-20T08:40:00.999Z,70.20
2022-09-20T08:40:33.518Z,70.30
2022-09-20T08:41:17.738Z,70.50
2022-09-20T08:41:57.345Z,70.50
2022-09-20T08:42:42.126Z,71.20
2022-09-20T08:43:22.297Z,70.80
2022-09-20T08:44:05.957Z,70.80
2022-09-20T08:44:58.588Z,70.70
2022-09-20T08:45:34.984Z,71.00
2022-09-20T08:46:13.924Z,71.00
2022-09-20T08:46:50.573Z,70.60
2022-09-20T08:47:38.161Z,73.60
2022-09-20T08:48:16.720Z,70.90
2022-09-20T08:48:48.824Z,70.70
2022-09-20T08:49:28.112Z,70.80
2022-09-20T08:50:09.165Z,70.70
2022-09-20T08:50:42.001Z,71.00
2022-09-20T08:51:22.647Z,71.80
2022-09-20T08:51:58.144Z,71.90
2022-09-20T08:52:37.421Z,71.40
2022-09-20T08:53:14.920Z,70.90
2022-09-20T08:53:50.843Z,71.20
2022-09-20T08:54:24.120Z,71.40
2022-09-20T08:54:59.932Z,70.50
2022-09-20T08:55:39.940Z,69.00
2022-09-20T08:56:11.816Z,71.20
2022-09-20T08:56:45.366Z,71.10
2022-09-20T08:57:20.334Z,72.60
2022-09-20T08:57:54.858Z,71.50
2022-09-20T08:58:27.505Z,70.90
2022-09-20T08:59:00.225Z,70.70
2022-09-20T08:59:32.436Z,71.10
2022-09-20T09:00:06.315Z,71.00
2022-09-20T09:00:46.867Z,70.80
2022-09-20T09:01:22.548Z,70.90
2022-09-20T09:01:54.513Z,69.70
2022-09-20T09:02:26.455Z,69.80
2022-09-20T09:03:04.300Z,70.50
2022-09-20T09:03:36.090Z,69.70
2022-09-20T09:04:13.153Z,70.20
2022-09-20T09:04:45.963Z,69.60
2022-09-20T09:05:31.499Z,70.00
2022-09-20T09:06:05.615Z,69.20
2022-09-20T09:06:41.499Z,69.10
2022-09-20T09:07:15.809Z,69.10
2022-09-20T09:07:47.677Z,69.40
2022-09-20T09:08:29.009Z,68.90
2022-09-20T09:09:00.913Z,67.50
2022-09-20T09:09:37.550Z,69.80
2022-09-20T09:10:10.068Z,69.50
2022-09-20T09:10:51.231Z,69.00
2022-09-20T09:11:23.431Z,69.60
2022-09-20T09:11:56.921Z,69.00
2022-09-20T09:12:35.255Z,69.60
2022-09-20T09:13:07.689Z,69.40
2022-09-20T09:14:07.008Z,69.50
2022-09-20T09:14:48.612Z,69.40
2022-09-20T09:15:34.920Z,69.70
2022-09-20T09:16:15.412Z,70.50
2022-09-20T09:16:47.362Z,69.50
2022-09-20T09:17:28.494Z,69.90
2022-09-20T09:18:01.301Z,69.80
2022-09-20T09:18:37.475Z,70.40
2022-09-20T09:19:34.444Z,70.20
2022-09-20T09:20:21.630Z,69.90
2022-09-20T09:21:28.967Z,69.10
2022-09-20T09:22:03.326Z,70.60
2022-09-20T09:22:38.236Z,70.70
2022-09-20T09:23:25.286Z,69.30
2022-09-20T09:24:06.412Z,71.70
2022-09-20T09:24:38.268Z,69.40
2022-09-20T09:25:23.504Z,69.30
2022-09-20T09:25:56.396Z,69.80
2022-09-20T09:26:35.123Z,70.80
2022-09-20T09:27:19.283Z,70.00
2022-09-20T09:27:56.092Z,69.40
2022-09-20T09:28:31.598Z,69.40
2022-09-20T09:29:19.964Z,69.80
2022-09-20T09:29:56.402Z,69.40
2022-09-20T09:30:31.790Z,69.40
2022-09-20T09:31:22.192Z,69.70
2022-09-20T09:31:57.265Z,69.10
2022-09-20T09:32:32.797Z,69.50
2022-09-20T09:33:21.541Z,69.10
2022-09-20T09:33:53.368Z,69.50
2022-09-20T09:34:26.605Z,68.90
2022-09-20T09:35:24.131Z,69.00
2022-09-20T09:36:04.661Z,69.50
2022-09-20T09:36:44.402Z,68.50
2022-09-20T09:37:29.251Z,68.90
2022-09-20T09:38:02.349Z,69.00
2022-09-20T09:38:37.538Z,68.90
2022-09-20T09:39:33.338Z,68.90
2022-09-20T09:40:16.494Z,68.90
2022-09-20T09:40:56.028Z,69.30
2022-09-20T09:41:35.549Z,68.90
2022-09-20T09:42:28.765Z,68.80
2022-09-20T09:43:04.052Z,69.40
2022-09-20T09:43:37.901Z,70.30
2022-09-20T09:44:24.720Z,70.00
2022-09-20T09:45:12.266Z,68.70
2022-09-20T09:45:44.094Z,69.30
2022-09-20T09:46:21.604Z,68.70
2022-09-20T09:46:54.097Z,69.20
2022-09-20T09:47:29.079Z,69.30
2022-09-20T09:48:02.155Z,69.20
2022-09-20T09:48:35.292Z,68.70
2022-09-20T09:49:16.685Z,69.20
2022-09-20T09:50:02.656Z,69.10
2022-09-20T09:50:35.703Z,68.60
2022-09-20T09:51:16.612Z,68.60
2022-09-20T09:52:03.697Z,68.60
2022-09-20T09:52:36.313Z,68.60
2022-09-20T09:53:26.468Z,69.30
2022-09-20T09:53:58.671Z,68.70
2022-09-20T09:54:37.225Z,70.10
2022-09-20T09:55:13.932Z,69.10
2022-09-20T09:56:14.219Z,68.70
2022-09-20T09:57:03.410Z,68.70
2022-09-20T09:57:43.868Z,69.20
2022-09-20T09:58:27.467Z,69.20
2022-09-20T09:59:20.005Z,69.60
2022-09-20T09:59:57.875Z,69.30
2022-09-20T10:00:31.388Z,69.30
2022-09-20T10:01:11.581Z,70.20
2022-09-20T10:01:55.564Z,69.30
2022-09-20T10:02:45.713Z,69.10
2022-09-20T10:03:40.088Z,68.70
2022-09-20T10:04:46.937Z,69.20
2022-09-20T10:05:39.244Z,69.30
2022-09-20T10:06:14.938Z,69.30
2022-09-20T10:06:58.054Z,69.30
2022-09-20T10:07:59.569Z,70.10
2022-09-20T10:08:45.143Z,69.40
2022-09-20T10:09:36.074Z,69.50
2022-09-20T10:10:26.566Z,70.00
2022-09-20T10:11:03.759Z,71.70
2022-09-20T10:12:03.057Z,69.50
2022-09-20T10:13:03.439Z,69.60
2022-09-20T10:14:05.306Z,69.20
2022-09-20T10:14:58.185Z,69.60
2022-09-20T10:15:46.596Z,70.10
2022-09-20T10:16:55.586Z,69.30
2022-09-20T10:17:50.631Z,69.50
2022-09-20T10:18:40.921Z,69.50
2022-09-20T10:19:51.423Z,69.60
2022-09-20T10:20:53.153Z,69.70
2022-09-20T10:21:43.520Z,69.90
2022-09-20T10:23:06.780Z,69.90
2022-09-20T10:24:13.253Z,69.90
2022-09-20T10:25:02.914Z,70.00
2022-09-20T10:26:04.433Z,70.10
2022-09-20T10:27:10.770Z,69.90
2022-09-20T10:27:58.742Z,70.10
2022-09-20T10:28:48.614Z,69.90
2022-09-20T10:29:47.653Z,69.70
2022-09-20T10:30:24.085Z,70.10
2022-09-20T10:31:10.959Z,69.40
2022-09-20T10:32:05.473Z,70.00
2022-09-20T10:33:05.342Z,70.00
2022-09-20T10:33:49.369Z,70.00
2022-09-20T10:34:39.751Z,70.10
2022-09-20T10:35:14.418Z,70.20
2022-09-20T10:36:00.297Z,70.30
2022-09-20T10:36:31.995Z,71.00
2022-09-20T10:37:24.249Z,70.70
2022-09-20T10:38:08.274Z,70.40
2022-09-20T10:39:05.962Z,70.20
2022-09-20T10:39:43.228Z,70.10
2022-09-20T10:40:14.988Z,70.10
2022-09-20T10:41:31.337Z,70.20
2022-09-20T10:42:56.560Z,70.20
2022-09-20T10:43:42.468Z,70.00
2022-09-20T10:44:32.460Z,71.50
2022-09-20T10:46:03.353Z,69.80
2022-09-20T10:46:56.874Z,70.40
2022-09-20T10:47:45.386Z,70.20
2022-09-20T10:48:37.763Z,70.20
2022-09-20T10:49:24.940Z,70.30
2022-09-20T10:50:29.135Z,70.20
2022-09-20T10:51:13.181Z,70.20
2022-09-20T10:52:01.821Z,70.40
2022-09-20T10:52:57.245Z,70.40
2022-09-20T10:53:36.541Z,70.30
2022-09-20T10:54:25.291Z,69.90
2022-09-20T10:55:06.301Z,70.70
2022-09-20T10:55:57.550Z,70.30
2022-09-20T10:56:41.338Z,71.50
2022-09-20T10:57:50.408Z,70.30
2022-09-20T10:58:41.293Z,70.30
2022-09-20T10:59:17.198Z,70.50
2022-09-20T10:59:57.834Z,70.30
2022-09-20T11:00:42.132Z,70.10
2022-09-20T11:01:58.126Z,70.00
2022-09-20T11:02:50.614Z,69.90
2022-09-20T11:03:52.995Z,69.80
2022-09-20T11:04:42.881Z,70.20
2022-09-20T11:05:33.019Z,70.10
2022-09-20T11:06:13.557Z,70.20
2022-09-20T11:07:07.375Z,69.70
2022-09-20T11:08:22.727Z,69.60
2022-09-20T11:09:00.228Z,70.10
2022-09-20T11:09:56.621Z,70.30
2022-09-20T11:10:37.726Z,69.90
2022-09-20T11:11:40.344Z,70.50
2022-09-20T11:12:38.199Z,69.60
2022-09-20T11:13:26.091Z,70.00
2022-09-20T11:14:06.185Z,69.40
2022-09-20T11:52:17.937Z,68.40
2022-09-20T11:54:14.525Z,69.20
2022-09-20T11:56:11.044Z,69.20
2022-09-20T11:59:35.232Z,68.50
2022-09-20T12:01:34.627Z,68.10
2022-09-20T12:02:35.986Z,69.00
2022-09-20T12:04:53.159Z,68.60
2022-09-20T12:05:30.030Z,68.40
2022-09-20T12:06:05.662Z,68.40
2022-09-20T12:06:41.362Z,68.20
2022-09-20T12:07:44.617Z,69.30
2022-09-20T12:08:41.596Z,68.90
2022-09-20T12:09:29.040Z,68.80
2022-09-20T12:10:59.208Z,68.80
2022-09-20T12:11:38.838Z,68.00
2022-09-20T12:12:31.096Z,67.90
2022-09-20T12:13:06.670Z,68.40
2022-09-20T12:14:19.796Z,68.60
2022-09-20T12:14:58.794Z,68.00
2022-09-20T12:15:39.048Z,68.70
2022-09-20T12:16:17.668Z,67.80
2022-09-20T12:17:47.174Z,67.70
2022-09-20T12:18:35.621Z,68.00
2022-09-20T12:19:12.153Z,68.30
2022-09-20T12:19:43.930Z,68.00
2022-09-20T12:20:38.685Z,67.70
2022-09-20T12:21:16.028Z,68.00
2022-09-20T12:21:59.679Z,68.20
2022-09-20T12:22:31.497Z,67.70
2022-09-20T12:23:43.419Z,67.70
2022-09-20T12:26:02.105Z,67.50
2022-09-20T12:26:39.924Z,68.60
2022-09-20T12:27:29.110Z,67.70
2022-09-20T12:28:01.009Z,67.80
2022-09-20T12:29:24.524Z,67.70
2022-09-20T12:30:04.956Z,69.00
2022-09-20T12:30:36.750Z,69.10
2022-09-20T12:31:28.966Z,69.50
2022-09-20T12:32:03.034Z,69.60
2022-09-20T12:32:44.859Z,69.80
2022-09-20T12:33:22.080Z,69.40
2022-09-20T12:34:11.810Z,69.00
2022-09-20T12:34:43.683Z,68.90
2022-09-20T12:35:37.084Z,68.40
2022-09-20T12:36:18.425Z,68.10
2022-09-20T12:36:58.420Z,67.80
2022-09-20T12:38:20.873Z,67.80
2022-09-20T12:39:36.536Z,67.50
2022-09-20T12:40:16.314Z,67.50
2022-09-20T12:41:01.556Z,67.70
2022-09-20T12:41:56.032Z,68.00
2022-09-20T12:42:31.569Z,68.00
2022-09-20T12:43:03.526Z,67.50
2022-09-20T12:43:56.085Z,68.20
2022-09-20T12:44:36.628Z,68.60
2022-09-20T12:45:18.436Z,69.30
2022-09-20T12:46:02.585Z,68.20
2022-09-20T12:46:50.660Z,67.70
2022-09-20T12:47:24.265Z,67.90
2022-09-20T12:47:56.737Z,68.50
2022-09-20T12:48:35.894Z,68.30
2022-09-20T12:49:44.807Z,69.30
2022-09-20T12:50:35.492Z,69.40
2022-09-20T12:51:48.074Z,68.30
2022-09-20T12:52:54.086Z,69.30
2022-09-20T12:53:26.088Z,69.30
2022-09-20T12:54:07.215Z,67.90
2022-09-20T12:54:52.312Z,67.70
2022-09-20T12:55:29.892Z,67.80
2022-09-20T12:56:01.940Z,67.60
2022-09-20T12:56:42.639Z,67.50
2022-09-20T12:57:32.627Z,67.60
2022-09-20T12:58:21.011Z,68.40
2022-09-20T12:58:55.260Z,68.00
2022-09-20T12:59:30.970Z,67.30
2022-09-20T13:00:06.185Z,67.30
2022-09-20T13:00:46.491Z,67.20
2022-09-20T13:01:18.357Z,67.80
2022-09-20T13:01:50.559Z,67.10
2022-09-20T13:03:02.443Z,67.10
2022-09-20T13:03:42.460Z,67.20
2022-09-20T13:04:54.076Z,69.20
2022-09-20T13:05:38.155Z,67.00
2022-09-20T13:06:12.333Z,66.90
2022-09-20T13:06:45.008Z,67.20
2022-09-20T13:07:44.033Z,67.10
2022-09-20T13:08:25.010Z,67.70
2022-09-20T13:09:04.645Z,67.50
2022-09-20T13:09:36.527Z,67.00
2022-09-20T13:11:16.769Z,66.80
2022-09-20T13:11:55.939Z,66.80
2022-09-20T13:12:28.648Z,65.30
2022-09-20T13:13:17.273Z,67.30
2022-09-20T13:14:16.070Z,67.40
2022-09-20T13:14:47.997Z,66.60
2022-09-20T13:15:21.864Z,66.60
2022-09-20T13:15:55.373Z,66.70
2022-09-20T13:16:36.198Z,66.70
2022-09-20T13:17:27.992Z,66.90
2022-09-20T13:18:02.067Z,69.00
2022-09-20T13:18:36.282Z,67.20
2022-09-20T13:19:40.381Z,68.10
2022-09-20T13:20:20.386Z,68.00
2022-09-20T13:20:53.812Z,67.30
2022-09-20T13:21:27.323Z,67.60
2022-09-20T13:22:13.159Z,67.70
2022-09-20T13:22:47.466Z,68.30
2022-09-20T13:23:26.140Z,67.90
2022-09-20T13:23:59.470Z,68.10
2022-09-20T13:24:48.303Z,67.90
2022-09-20T13:25:22.414Z,68.20
2022-09-20T13:25:58.139Z,68.00
2022-09-20T13:26:35.805Z,68.00
2022-09-20T13:27:39.570Z,68.00
2022-09-20T13:28:30.135Z,68.10
2022-09-20T13:29:04.634Z,68.80
2022-09-20T13:29:42.249Z,68.90
2022-09-20T13:30:17.444Z,67.70
2022-09-20T13:31:21.332Z,67.90
2022-09-20T13:31:56.380Z,68.00
2022-09-20T13:32:32.177Z,68.50
2022-09-20T13:33:24.966Z,67.50
2022-09-20T13:34:19.697Z,68.30
2022-09-20T13:35:10.424Z,68.00
2022-09-20T13:35:47.055Z,68.20
2022-09-20T13:36:30.113Z,67.30
2022-09-20T13:37:02.833Z,66.60
2022-09-20T13:37:42.916Z,67.00
2022-09-20T13:38:25.055Z,68.90
2022-09-20T13:38:58.462Z,67.90
2022-09-20T13:39:37.649Z,66.70
2022-09-20T13:40:47.708Z,66.80
2022-09-20T13:41:19.573Z,67.20
2022-09-20T13:41:51.922Z,67.50
2022-09-20T13:42:24.493Z,67.40
2022-09-20T13:43:22.027Z,66.10
2022-09-20T13:43:51.957Z,67.80
2022-09-20T13:44:25.425Z,67.50
2022-09-20T13:44:59.170Z,67.40
2022-09-20T13:45:34.099Z,67.10
2022-09-20T13:46:16.434Z,67.50
2022-09-20T13:47:26.786Z,66.80
2022-09-20T13:48:01.437Z,67.20
2022-09-20T13:49:24.736Z,67.00
2022-09-20T13:50:10.529Z,67.90
2022-09-20T13:50:47.106Z,68.00
2022-09-20T13:51:25.727Z,67.90
2022-09-20T13:51:57.558Z,68.20
2022-09-20T13:52:31.811Z,67.90
2022-09-20T13:53:39.323Z,68.80
2022-09-20T13:54:22.035Z,68.10
2022-09-20T13:54:55.319Z,68.90
2022-09-20T13:55:34.252Z,68.10
2022-09-20T13:56:24.200Z,68.50
2022-09-20T13:57:03.204Z,67.80
2022-09-20T13:57:35.245Z,67.60
2022-09-20T13:58:25.341Z,67.00
2022-09-20T13:59:04.293Z,67.50
2022-09-20T13:59:44.885Z,67.90
2022-09-20T14:00:17.633Z,68.00
2022-09-20T14:00:58.173Z,68.00
2022-09-20T14:01:33.549Z,67.70
2022-09-20T14:02:40.168Z,67.30
2022-09-20T14:03:17.624Z,67.60
2022-09-20T14:03:49.647Z,68.00
2022-09-20T14:04:24.687Z,68.10
2022-09-20T14:04:59.966Z,67.20
2022-09-20T14:05:32.053Z,67.30
2022-09-20T14:06:13.497Z,68.00
2022-09-20T14:06:46.233Z,68.00
2022-09-20T14:07:18.238Z,68.00
2022-09-20T14:07:51.017Z,68.00
2022-09-20T14:18:53.201Z,67.00
2022-09-20T14:19:32.748Z,66.70
2022-09-20T14:20:05.809Z,67.30
2022-09-20T14:20:38.182Z,67.30
2022-09-20T14:21:11.899Z,67.10
2022-09-20T14:21:44.846Z,66.10
2022-09-20T14:22:25.561Z,66.20
2022-09-20T14:22:59.231Z,66.40
2022-09-20T14:23:31.661Z,67.00
2022-09-20T14:24:11.972Z,66.80
2022-09-20T14:25:17.340Z,66.50
2022-09-20T14:26:20.293Z,66.70
2022-09-20T14:27:04.320Z,66.80
2022-09-20T14:27:36.084Z,67.10
2022-09-20T14:28:18.985Z,67.50
2022-09-20T14:28:51.242Z,66.60
2022-09-20T14:29:35.595Z,66.80
2022-09-20T14:30:27.851Z,66.70
2022-09-20T14:31:20.437Z,66.50
2022-09-20T14:31:55.229Z,68.30
2022-09-20T14:32:39.500Z,66.40
2022-09-20T14:33:18.703Z,66.50
2022-09-20T14:33:55.401Z,66.90
2022-09-20T14:34:28.514Z,67.30
2022-09-20T14:35:21.979Z,66.70
2022-09-20T14:35:53.770Z,66.60
2022-09-20T14:36:29.487Z,67.30
2022-09-20T14:37:14.400Z,66.90
2022-09-20T14:37:49.285Z,66.50
2022-09-20T14:38:26.645Z,67.10
2022-09-20T14:39:03.516Z,66.80
2022-09-20T14:39:49.130Z,66.40
2022-09-20T14:40:23.094Z,65.50
2022-09-20T14:40:55.075Z,66.30
2022-09-20T14:41:35.890Z,66.70
2022-09-20T14:42:20.995Z,66.10
2022-09-20T14:43:00.126Z,66.80
2022-09-20T14:43:35.464Z,66.20
2022-09-20T14:44:24.546Z,66.40
2022-09-20T14:44:56.755Z,66.30
2022-09-20T14:45:43.078Z,66.20
2022-09-20T14:46:17.425Z,66.60
2022-09-20T14:46:49.330Z,66.10
2022-09-20T14:47:38.581Z,66.10
2022-09-20T14:48:11.430Z,67.00
2022-09-20T14:48:45.396Z,66.50
2022-09-20T14:49:26.231Z,67.00
2022-09-20T14:49:58.374Z,66.40
2022-09-20T14:50:38.041Z,66.20
2022-09-20T14:51:18.708Z,66.60
2022-09-20T14:51:53.052Z,66.80
2022-09-20T14:52:27.832Z,66.90
2022-09-20T14:53:02.993Z,65.90